Time;durP1;ratioP1;P1;durP2;ratioP2;P2;SDS_P1;SDS_P2;PMS_P1;PMS_P2;Temp;Humidity;BMP_temperature;BMP_pressure;BME280_temperature;BME280_humidity;BME280_pressure;Samples;Min_cycle;Max_cycle;Signal;HPM_P1;HPM_P2
2022/11/26 00:00:29;;;;;;;;;;;;;;;;;;5096871;28;19908;-66
2022/11/26 00:02:55;;;;;;;;;;;;;;;;;;5097740;28;19915;-66
2022/11/26 00:05:21;;;;;;;;;;;;;;;;;;5097875;28;20360;-66
2022/11/26 00:07:47;;;;;;;;;;;;;;;;;;5096841;28;19908;-68
2022/11/26 00:10:13;;;;;;;;;;;;;;;;;;5097019;28;19963;-67
2022/11/26 00:12:39;;;;;;;;;;;;;;;;;;5097280;28;19908;-67
2022/11/26 00:15:05;;;;;;;;;;;;;;;;;;5096679;28;19912;-66
2022/11/26 00:17:31;;;;;;;;;;;;;;;;;;5078919;28;20466;-66
2022/11/26 00:19:57;;;;;;;;;;;;;;;;;;5096525;28;20324;-66
2022/11/26 00:22:23;;;;;;;;;;;;;;;;;;5096879;28;19908;-66
2022/11/26 00:24:49;;;;;;;;;;;;;;;;;;5096916;28;19915;-66
2022/11/26 00:27:15;;;;;;;;;;;;;;;;;;5096392;28;20311;-66
2022/11/26 00:29:41;;;;;;;;;;;;;;;;;;5096770;28;19920;-66
2022/11/26 00:32:07;;;;;;;;;;;;;;;;;;5096752;28;19962;-67
2022/11/26 00:34:33;;;;;;;;;;;;;;;;;;5096381;28;19908;-66
2022/11/26 00:36:59;;;;;;;;;;;;;;;;;;5096825;28;19908;-66
2022/11/26 00:39:24;;;;;;;;;;;;;;;;;;5078474;28;19919;-67
2022/11/26 00:41:50;;;;;;;;;;;;;;;;;;5096098;28;19912;-66
2022/11/26 00:44:16;;;;;;;;;;;;;;;;;;5097141;28;19908;-67
2022/11/26 00:46:42;;;;;;;;;;;;;;;;;;5096484;28;19931;-66
2022/11/26 00:49:08;;;;;;;;;;;;;;;;;;5096157;28;19908;-67
2022/11/26 00:51:34;;;;;;;;;;;;;;;;;;5096268;28;19920;-67
2022/11/26 00:54:00;;;;;;;;;;;;;;;;;;5096332;28;19943;-66
2022/11/26 00:56:26;;;;;;;;;;;;;;;;;;5096183;28;19908;-67
2022/11/26 00:58:52;;;;;;;;;;;;;;;;;;5096257;28;20390;-67
2022/11/26 01:01:18;;;;;;;;;;;;;;;;;;5078014;28;19931;-67
2022/11/26 01:03:44;;;;;;;;;;;;;;;;;;5095728;28;19912;-67
2022/11/26 01:06:10;;;;;;;;;;;;;;;;;;5096093;28;20006;-67
2022/11/26 01:08:36;;;;;;;;;;;;;;;;;;5096092;28;19912;-67
2022/11/26 01:11:02;;;;;;;;;;;;;;;;;;5095397;28;19927;-67
2022/11/26 01:13:28;;;;;;;;;;;;;;;;;;5096002;28;20360;-67
2022/11/26 01:15:54;;;;;;;;;;;;;;;;;;5077800;28;20305;-67
2022/11/26 01:18:20;;;;;;;;;;;;;;;;;;5095496;28;20279;-67
2022/11/26 01:20:46;;;;;;;;;;;;;;;;;;5095924;28;20271;-67
2022/11/26 01:23:12;;;;;;;;;;;;;;;;;;5095376;28;19912;-67
2022/11/26 01:25:38;;;;;;;;;;;;;;;;;;5095813;28;19908;-67
2022/11/26 01:28:04;;;;;;;;;;;;;;;;;;5095686;28;19912;-67
2022/11/26 01:30:30;;;;;;;;;;;;;;;;;;5095321;28;19942;-67
2022/11/26 01:32:56;;;;;;;;;;;;;;;;;;5077493;28;19908;-67
2022/11/26 01:35:22;;;;;;;;;;;;;;;;;;5077467;28;19908;-67
2022/11/26 01:37:48;;;;;;;;;;;;;;;;;;5095174;28;20432;-67
2022/11/26 01:40:14;;;;;;;;;;;;;;;;;;5077307;28;20506;-67
2022/11/26 01:42:40;;;;;;;;;;;;;;;;;;5095384;28;19908;-67
2022/11/26 01:45:06;;;;;;;;;;;;;;;;;;5094929;28;19912;-67
2022/11/26 01:47:32;;;;;;;;;;;;;;;;;;5095608;28;19915;-67
2022/11/26 01:49:58;;;;;;;;;;;;;;;;;;5095108;28;19963;-66
2022/11/26 01:52:24;;;;;;;;;;;;;;;;;;5094896;28;19916;-67
2022/11/26 01:54:49;;;;;;;;;;;;;;;;;;5094507;28;19908;-67
2022/11/26 01:57:15;;;;;;;;;;;;;;;;;;5095107;28;19908;-66
2022/11/26 01:59:41;;;;;;;;;;;;;;;;;;5076575;28;20356;-67
2022/11/26 02:02:07;;;;;;;;;;;;;;;;;;5095067;28;19953;-67
2022/11/26 02:04:33;;;;;;;;;;;;;;;;;;5095133;28;20261;-67
2022/11/26 02:06:59;;;;;;;;;;;;;;;;;;5094548;28;19908;-67
2022/11/26 02:09:25;;;;;;;;;;;;;;;;;;5094607;28;19985;-66
2022/11/26 02:11:51;;;;;;;;;;;;;;;;;;5076990;28;19909;-66
2022/11/26 02:14:17;;;;;;;;;;;;;;;;;;5094401;28;19961;-65
2022/11/26 02:16:43;;;;;;;;;;;;;;;;;;5094734;28;19908;-65
2022/11/26 02:19:09;;;;;;;;;;;;;;;;;;5094682;28;19944;-65
2022/11/26 02:21:35;;;;;;;;;;;;;;;;;;5094291;28;19934;-65
2022/11/26 02:24:01;;;;;;;;;;;;;;;;;;5094665;28;20451;-65
2022/11/26 02:26:27;;;;;;;;;;;;;;;;;;5075978;28;19951;-65
2022/11/26 02:28:53;;;;;;;;;;;;;;;;;;5094396;28;20379;-65
2022/11/26 02:31:19;;;;;;;;;;;;;;;;;;5094674;28;19917;-66
2022/11/26 02:33:45;;;;;;;;;;;;;;;;;;5094024;28;20327;-65
2022/11/26 02:36:11;;;;;;;;;;;;;;;;;;5094409;28;19919;-65
2022/11/26 02:38:37;;;;;;;;;;;;;;;;;;5076207;28;19912;-65
2022/11/26 02:41:03;;;;;;;;;;;;;;;;;;5093881;28;19915;-65
2022/11/26 02:43:29;;;;;;;;;;;;;;;;;;5076175;28;19954;-65
2022/11/26 02:45:55;;;;;;;;;;;;;;;;;;5094458;28;19915;-65
2022/11/26 02:48:21;;;;;;;;;;;;;;;;;;5093878;28;19914;-65
2022/11/26 02:50:46;;;;;;;;;;;;;;;;;;5094171;28;20410;-66
2022/11/26 02:53:12;;;;;;;;;;;;;;;;;;5094189;28;19908;-65
2022/11/26 02:55:38;;;;;;;;;;;;;;;;;;5093780;28;20300;-65
2022/11/26 02:58:04;;;;;;;;;;;;;;;;;;5094126;28;19912;-67
2022/11/26 03:00:30;;;;;;;;;;;;;;;;;;5094091;28;19968;-66
2022/11/26 03:02:56;;;;;;;;;;;;;;;;;;5093777;28;19908;-67
2022/11/26 03:05:22;;;;;;;;;;;;;;;;;;5093889;28;19908;-66
2022/11/26 03:07:48;;;;;;;;;;;;;;;;;;5094098;28;19915;-66
2022/11/26 03:10:14;;;;;;;;;;;;;;;;;;5093338;28;19928;-66
2022/11/26 03:12:40;;;;;;;;;;;;;;;;;;5094421;28;19952;-66
2022/11/26 03:15:06;;;;;;;;;;;;;;;;;;5093945;28;19931;-66
2022/11/26 03:17:32;;;;;;;;;;;;;;;;;;5093524;28;19947;-66
2022/11/26 03:19:58;;;;;;;;;;;;;;;;;;5093863;28;19908;-66
2022/11/26 03:22:24;;;;;;;;;;;;;;;;;;5093883;28;19942;-66
2022/11/26 03:24:50;;;;;;;;;;;;;;;;;;5075390;28;19908;-67
2022/11/26 03:27:16;;;;;;;;;;;;;;;;;;5075743;28;20320;-66
2022/11/26 03:29:42;;;;;;;;;;;;;;;;;;5093693;28;19920;-66
2022/11/26 03:32:08;;;;;;;;;;;;;;;;;;5093864;28;19912;-66
2022/11/26 03:34:34;;;;;;;;;;;;;;;;;;5094055;28;19908;-67
2022/11/26 03:37:00;;;;;;;;;;;;;;;;;;5093753;28;19974;-67
2022/11/26 03:39:25;;;;;;;;;;;;;;;;;;5093679;28;19970;-66
2022/11/26 03:41:51;;;;;;;;;;;;;;;;;;5075626;28;19973;-66
2022/11/26 03:44:17;;;;;;;;;;;;;;;;;;5075131;28;19966;-66
2022/11/26 03:46:43;;;;;;;;;;;;;;;;;;5093626;28;19914;-66
2022/11/26 03:49:09;;;;;;;;;;;;;;;;;;5093600;28;19941;-67
2022/11/26 03:51:35;;;;;;;;;;;;;;;;;;5093085;28;19923;-66
2022/11/26 03:54:01;;;;;;;;;;;;;;;;;;5093937;28;19954;-67
2022/11/26 03:56:27;;;;;;;;;;;;;;;;;;5093561;28;19912;-66
2022/11/26 03:58:53;;;;;;;;;;;;;;;;;;5093229;28;19908;-66
2022/11/26 04:01:19;;;;;;;;;;;;;;;;;;5075350;28;19955;-67
2022/11/26 04:03:45;;;;;;;;;;;;;;;;;;5093437;28;19912;-66
2022/11/26 04:06:11;;;;;;;;;;;;;;;;;;5093037;28;19916;-66
2022/11/26 04:08:37;;;;;;;;;;;;;;;;;;5093421;28;20391;-66
2022/11/26 04:11:03;;;;;;;;;;;;;;;;;;5093184;28;19923;-66
2022/11/26 04:13:29;;;;;;;;;;;;;;;;;;5093123;28;19908;-66
2022/11/26 04:15:55;;;;;;;;;;;;;;;;;;5093336;28;20384;-66
2022/11/26 04:18:21;;;;;;;;;;;;;;;;;;5095661;28;19918;-66
2022/11/26 04:20:46;;;;;;;;;;;;;;;;;;5078473;28;19908;-66
2022/11/26 04:23:12;;;;;;;;;;;;;;;;;;5097029;28;19914;-66
2022/11/26 04:25:38;;;;;;;;;;;;;;;;;;5078768;28;19934;-66
2022/11/26 04:28:04;;;;;;;;;;;;;;;;;;5096430;28;19913;-66
2022/11/26 04:30:30;;;;;;;;;;;;;;;;;;5097253;28;19970;-66
2022/11/26 04:32:56;;;;;;;;;;;;;;;;;;5097388;28;19951;-66
2022/11/26 04:35:22;;;;;;;;;;;;;;;;;;5096272;28;19953;-66
2022/11/26 04:37:48;;;;;;;;;;;;;;;;;;5096668;28;20373;-66
2022/11/26 04:40:14;;;;;;;;;;;;;;;;;;5096209;28;20295;-66
2022/11/26 04:42:40;;;;;;;;;;;;;;;;;;5078387;28;19914;-66
2022/11/26 04:45:06;;;;;;;;;;;;;;;;;;5078421;28;19908;-66
2022/11/26 04:47:32;;;;;;;;;;;;;;;;;;5096029;28;19914;-67
2022/11/26 04:49:58;;;;;;;;;;;;;;;;;;5096458;28;19920;-66
2022/11/26 04:52:24;;;;;;;;;;;;;;;;;;5078139;28;19908;-66
2022/11/26 04:54:50;;;;;;;;;;;;;;;;;;5095999;28;19908;-66
2022/11/26 04:57:16;;;;;;;;;;;;;;;;;;5096377;28;19939;-66
2022/11/26 04:59:41;;;;;;;;;;;;;;;;;;5096280;28;19916;-66
2022/11/26 05:02:07;;;;;;;;;;;;;;;;;;5095821;28;19908;-66
2022/11/26 05:04:33;;;;;;;;;;;;;;;;;;5096124;28;19915;-66
2022/11/26 05:06:59;;;;;;;;;;;;;;;;;;5096042;28;19934;-66
2022/11/26 05:09:25;;;;;;;;;;;;;;;;;;5095534;28;19966;-66
2022/11/26 05:11:51;;;;;;;;;;;;;;;;;;5096011;28;19915;-66
2022/11/26 05:14:17;;;;;;;;;;;;;;;;;;5096041;28;19908;-66
2022/11/26 05:16:43;;;;;;;;;;;;;;;;;;5077409;28;19908;-66
2022/11/26 05:19:09;;;;;;;;;;;;;;;;;;5095891;28;19909;-66
2022/11/26 05:21:35;;;;;;;;;;;;;;;;;;5077708;28;19909;-66
2022/11/26 05:24:01;;;;;;;;;;;;;;;;;;5095546;28;19915;-66
2022/11/26 05:26:27;;;;;;;;;;;;;;;;;;5077610;28;19908;-66
2022/11/26 05:28:53;;;;;;;;;;;;;;;;;;5095887;28;19908;-66
2022/11/26 05:31:19;;;;;;;;;;;;;;;;;;5095348;28;19916;-66
2022/11/26 05:33:45;;;;;;;;;;;;;;;;;;5095811;28;19926;-66
2022/11/26 05:36:11;;;;;;;;;;;;;;;;;;5095559;28;19919;-66
2022/11/26 05:38:37;;;;;;;;;;;;;;;;;;5095076;28;19912;-66
2022/11/26 05:41:03;;;;;;;;;;;;;;;;;;5095434;28;19991;-66
2022/11/26 05:43:28;;;;;;;;;;;;;;;;;;5076775;28;20426;-66
2022/11/26 05:45:54;;;;;;;;;;;;;;;;;;5095402;28;20264;-66
2022/11/26 05:48:20;;;;;;;;;;;;;;;;;;5095319;28;19909;-66
2022/11/26 05:50:46;;;;;;;;;;;;;;;;;;5094776;28;19923;-66
2022/11/26 05:53:12;;;;;;;;;;;;;;;;;;5095181;28;19999;-66
2022/11/26 05:55:38;;;;;;;;;;;;;;;;;;5095117;28;19915;-66
2022/11/26 05:58:04;;;;;;;;;;;;;;;;;;5094662;28;19912;-66
2022/11/26 06:00:30;;;;;;;;;;;;;;;;;;5095678;28;19908;-66
2022/11/26 06:02:56;;;;;;;;;;;;;;;;;;5095027;28;20060;-66
2022/11/26 06:05:22;;;;;;;;;;;;;;;;;;5094535;28;19912;-66
2022/11/26 06:07:48;;;;;;;;;;;;;;;;;;5094987;28;19908;-66
2022/11/26 06:10:14;;;;;;;;;;;;;;;;;;5094595;28;19955;-66
2022/11/26 06:12:40;;;;;;;;;;;;;;;;;;5094558;28;19915;-66
2022/11/26 06:15:06;;;;;;;;;;;;;;;;;;5094752;28;19908;-66
2022/11/26 06:17:32;;;;;;;;;;;;;;;;;;5094522;28;19949;-66
2022/11/26 06:19:58;;;;;;;;;;;;;;;;;;5076130;28;19912;-66
2022/11/26 06:22:24;;;;;;;;;;;;;;;;;;5076483;28;19908;-66
2022/11/26 06:24:49;;;;;;;;;;;;;;;;;;5094865;28;19954;-66
2022/11/26 06:27:15;;;;;;;;;;;;;;;;;;5094393;28;19934;-66
2022/11/26 06:29:41;;;;;;;;;;;;;;;;;;5094501;28;19912;-66
2022/11/26 06:32:07;;;;;;;;;;;;;;;;;;5094504;28;19908;-66
2022/11/26 06:34:33;;;;;;;;;;;;;;;;;;5094052;28;20010;-66
2022/11/26 06:36:59;;;;;;;;;;;;;;;;;;5094403;28;19915;-66
2022/11/26 06:39:25;;;;;;;;;;;;;;;;;;5094521;28;20352;-66
2022/11/26 06:41:51;;;;;;;;;;;;;;;;;;5093447;28;20280;-66
2022/11/26 06:44:17;;;;;;;;;;;;;;;;;;5094248;28;20012;-65
2022/11/26 06:46:43;;;;;;;;;;;;;;;;;;5093772;28;19908;-66
2022/11/26 06:49:09;;;;;;;;;;;;;;;;;;5076030;28;20045;-66
2022/11/26 06:51:35;;;;;;;;;;;;;;;;;;5094145;28;19920;-66
2022/11/26 06:54:01;;;;;;;;;;;;;;;;;;5093753;28;20254;-66
2022/11/26 06:56:27;;;;;;;;;;;;;;;;;;5075960;28;19908;-66
2022/11/26 06:58:54;;;;;;;;;;;;;;;;;;5094123;28;19949;-66
2022/11/26 07:01:20;;;;;;;;;;;;;;;;;;5093640;28;19908;-66
2022/11/26 07:03:46;;;;;;;;;;;;;;;;;;5094450;28;20325;-66
2022/11/26 07:06:11;;;;;;;;;;;;;;;;;;5094013;28;19912;-66
2022/11/26 07:08:37;;;;;;;;;;;;;;;;;;5093624;28;20368;-66
2022/11/26 07:11:03;;;;;;;;;;;;;;;;;;5093741;28;20307;-67
2022/11/26 07:13:29;;;;;;;;;;;;;;;;;;5093917;28;19991;-66
2022/11/26 07:15:55;;;;;;;;;;;;;;;;;;5093489;28;19908;-66
2022/11/26 07:18:21;;;;;;;;;;;;;;;;;;5093930;28;19943;-67
2022/11/26 07:20:47;;;;;;;;;;;;;;;;;;5093948;28;19951;-67
2022/11/26 07:23:13;;;;;;;;;;;;;;;;;;5093458;28;19908;-67
2022/11/26 07:25:39;;;;;;;;;;;;;;;;;;5075829;28;20364;-67
2022/11/26 07:28:05;;;;;;;;;;;;;;;;;;5093720;28;20399;-67
2022/11/26 07:30:31;;;;;;;;;;;;;;;;;;5093308;28;19916;-67
2022/11/26 07:32:57;;;;;;;;;;;;;;;;;;5093682;28;19908;-67
2022/11/26 07:35:23;;;;;;;;;;;;;;;;;;5094016;28;20356;-67
2022/11/26 07:37:49;;;;;;;;;;;;;;;;;;5093382;28;20360;-67
2022/11/26 07:40:15;;;;;;;;;;;;;;;;;;5093557;28;19923;-67
2022/11/26 07:42:41;;;;;;;;;;;;;;;;;;5093562;28;19908;-66
2022/11/26 07:45:07;;;;;;;;;;;;;;;;;;5093276;28;19947;-67
2022/11/26 07:47:33;;;;;;;;;;;;;;;;;;5075522;28;19953;-66
2022/11/26 07:49:59;;;;;;;;;;;;;;;;;;5093613;28;20272;-67
2022/11/26 07:52:25;;;;;;;;;;;;;;;;;;5094536;28;19923;-66
2022/11/26 07:54:51;;;;;;;;;;;;;;;;;;5097870;28;19909;-67
2022/11/26 07:57:17;;;;;;;;;;;;;;;;;;5097077;28;19908;-67
2022/11/26 07:59:43;;;;;;;;;;;;;;;;;;5097398;28;20374;-67
2022/11/26 08:02:09;;;;;;;;;;;;;;;;;;5097328;28;19908;-67
2022/11/26 08:04:35;;;;;;;;;;;;;;;;;;5096956;28;20011;-67
2022/11/26 08:07:00;;;;;;;;;;;;;;;;;;5097546;28;19908;-67
2022/11/26 08:09:26;;;;;;;;;;;;;;;;;;5097007;28;19919;-67
2022/11/26 08:11:52;;;;;;;;;;;;;;;;;;5078517;28;20015;-67
2022/11/26 08:14:18;;;;;;;;;;;;;;;;;;5097410;28;20387;-66
2022/11/26 08:16:44;;;;;;;;;;;;;;;;;;5097146;28;19912;-66
2022/11/26 08:19:10;;;;;;;;;;;;;;;;;;5096641;28;19943;-66
2022/11/26 08:21:37;;;;;;;;;;;;;;;;;;5097362;28;19953;-66
2022/11/26 08:24:03;;;;;;;;;;;;;;;;;;5097015;28;19908;-66
2022/11/26 08:26:29;;;;;;;;;;;;;;;;;;5096395;28;19908;-66
2022/11/26 08:28:55;;;;;;;;;;;;;;;;;;5078561;28;19915;-67
2022/11/26 08:31:23;;;;;;;;;;;;;;;;;;5096713;28;19917;-67
2022/11/26 08:33:49;;;;;;;;;;;;;;;;;;5096551;28;19908;-67
2022/11/26 08:36:15;;;;;;;;;;;;;;;;;;5096725;28;19912;-67
2022/11/26 08:38:41;;;;;;;;;;;;;;;;;;5096809;28;19939;-66
2022/11/26 08:41:07;;;;;;;;;;;;;;;;;;5096188;28;19962;-66
2022/11/26 08:43:33;;;;;;;;;;;;;;;;;;5096487;28;19958;-66
2022/11/26 08:45:59;;;;;;;;;;;;;;;;;;5096458;28;19908;-66
2022/11/26 08:48:25;;;;;;;;;;;;;;;;;;5096022;28;19912;-66
2022/11/26 08:50:50;;;;;;;;;;;;;;;;;;5096368;28;19923;-66
2022/11/26 08:53:16;;;;;;;;;;;;;;;;;;5096008;28;19908;-66
2022/11/26 08:55:42;;;;;;;;;;;;;;;;;;5096348;28;20010;-66
2022/11/26 08:58:08;;;;;;;;;;;;;;;;;;5096280;28;19909;-66
2022/11/26 09:00:34;;;;;;;;;;;;;;;;;;5095810;28;19912;-66
2022/11/26 09:03:00;;;;;;;;;;;;;;;;;;5095761;28;19908;-66
2022/11/26 09:05:26;;;;;;;;;;;;;;;;;;5096182;28;19965;-66
2022/11/26 09:07:53;;;;;;;;;;;;;;;;;;5095704;28;20390;-67
2022/11/26 09:10:19;;;;;;;;;;;;;;;;;;5095759;28;19942;-66
2022/11/26 09:12:45;;;;;;;;;;;;;;;;;;5096383;28;20360;-66
2022/11/26 09:15:11;;;;;;;;;;;;;;;;;;5095564;28;19957;-67
2022/11/26 09:17:37;;;;;;;;;;;;;;;;;;5095894;28;19908;-67
2022/11/26 09:20:03;;;;;;;;;;;;;;;;;;5095873;28;20006;-67
2022/11/26 09:22:29;;;;;;;;;;;;;;;;;;5095565;28;19908;-67
2022/11/26 09:24:55;;;;;;;;;;;;;;;;;;5095744;28;19912;-67
2022/11/26 09:27:20;;;;;;;;;;;;;;;;;;5095759;28;20360;-67
2022/11/26 09:29:46;;;;;;;;;;;;;;;;;;5095340;28;20267;-67
2022/11/26 09:32:12;;;;;;;;;;;;;;;;;;5095974;28;19912;-67
2022/11/26 09:34:38;;;;;;;;;;;;;;;;;;5095476;28;19961;-67
2022/11/26 09:37:04;;;;;;;;;;;;;;;;;;5095132;28;19978;-67
2022/11/26 09:39:30;;;;;;;;;;;;;;;;;;5077358;28;19908;-67
2022/11/26 09:41:56;;;;;;;;;;;;;;;;;;5077401;28;20042;-66
2022/11/26 09:44:22;;;;;;;;;;;;;;;;;;5094822;28;19962;-67
2022/11/26 09:46:48;;;;;;;;;;;;;;;;;;5095312;28;19912;-66
2022/11/26 09:49:14;;;;;;;;;;;;;;;;;;5095604;28;19943;-66
2022/11/26 09:51:40;;;;;;;;;;;;;;;;;;5094790;28;19946;-66
2022/11/26 09:54:06;;;;;;;;;;;;;;;;;;5095330;28;19908;-66
2022/11/26 09:56:32;;;;;;;;;;;;;;;;;;5095104;28;20387;-66
2022/11/26 09:59:00;;;;;;;;;;;;;;;;;;5095511;28;19908;-66
2022/11/26 10:01:26;;;;;;;;;;;;;;;;;;5095036;28;19914;-66
2022/11/26 10:03:52;;;;;;;;;;;;;;;;;;5094528;28;19908;-66
2022/11/26 10:06:18;;;;;;;;;;;;;;;;;;5095037;28;19942;-66
2022/11/26 10:08:44;;;;;;;;;;;;;;;;;;5076706;28;20003;-67
2022/11/26 10:13:28;;;;;;;;;;;;;;;;;;5153352;27;20002;-66
2022/11/26 10:17:35;;;;;;;;;;;;;;;;;;5091515;27;19916;-65
2022/11/26 10:20:01;;;;;;;;;;;;;;;;;;5090932;28;19919;-67
2022/11/26 10:23:07;;;;;;;;;;;;;;;;;;5091842;27;19939;-66
2022/11/26 10:25:32;;;;;;;;;;;;;;;;;;5090899;28;20435;-66
2022/11/26 10:27:58;;;;;;;;;;;;;;;;;;5089997;28;19909;-66
2022/11/26 10:30:24;;;;;;;;;;;;;;;;;;5091295;28;19998;-66
2022/11/26 10:32:50;;;;;;;;;;;;;;;;;;5090862;28;19934;-66
2022/11/26 10:35:16;;;;;;;;;;;;;;;;;;5091209;28;19912;-66
2022/11/26 10:37:42;;;;;;;;;;;;;;;;;;5091593;28;19908;-66
2022/11/26 10:40:08;;;;;;;;;;;;;;;;;;5090815;28;19915;-66
2022/11/26 10:42:34;;;;;;;;;;;;;;;;;;5089551;28;19917;-67
2022/11/26 10:45:00;;;;;;;;;;;;;;;;;;5090970;28;19995;-67
2022/11/26 10:47:26;;;;;;;;;;;;;;;;;;5090780;28;20261;-67
2022/11/26 10:52:27;;;;;;;;;;;;;;;;;;5153313;27;20419;-65
2022/11/26 10:54:53;;;;;;;;;;;;;;;;;;5152520;27;19962;-66
2022/11/26 10:57:19;;;;;;;;;;;;;;;;;;5152801;27;20006;-66
2022/11/26 10:59:45;;;;;;;;;;;;;;;;;;5152858;27;19953;-66
2022/11/26 11:02:11;;;;;;;;;;;;;;;;;;5152378;27;20012;-66
2022/11/26 11:04:37;;;;;;;;;;;;;;;;;;5134071;27;20351;-66
2022/11/26 11:07:03;;;;;;;;;;;;;;;;;;5133649;27;19957;-66
2022/11/26 11:09:29;;;;;;;;;;;;;;;;;;5152602;27;20363;-66
2022/11/26 11:11:55;;;;;;;;;;;;;;;;;;5152539;27;20283;-67
2022/11/26 11:14:21;;;;;;;;;;;;;;;;;;5152148;27;19950;-67
2022/11/26 11:22:37;;;;;;;;;;;;;;;;;;5091052;27;19916;-66
2022/11/26 11:27:06;;;;;;;;;;;;;;;;;;5091669;27;19922;-66
2022/11/26 11:29:32;;;;;;;;;;;;;;;;;;5089640;28;20002;-66
2022/11/26 11:31:58;;;;;;;;;;;;;;;;;;5091260;28;19914;-67
2022/11/26 11:38:23;;;;;;;;;;;;;;;;;;5112166;27;20368;-66
2022/11/26 11:40:49;;;;;;;;;;;;;;;;;;5111700;28;20003;-66
2022/11/26 11:43:15;;;;;;;;;;;;;;;;;;5109946;28;20372;-66
2022/11/26 11:46:08;;;;;;;;;;;;;;;;;;5092070;27;19916;-67
2022/11/26 11:49:04;;;;;;;;;;;;;;;;;;5092126;27;20368;-66
2022/11/26 11:51:30;;;;;;;;;;;;;;;;;;5090972;28;20372;-66
2022/11/26 11:53:56;;;;;;;;;;;;;;;;;;5091264;28;19915;-67
2022/11/26 11:59:35;;;;;;;;;;;;;;;;;;5091792;27;20295;-66
2022/11/26 12:02:01;;;;;;;;;;;;;;;;;;5091714;28;20410;-67
2022/11/26 12:04:27;;;;;;;;;;;;;;;;;;5090873;28;19999;-67
2022/11/26 12:06:53;;;;;;;;;;;;;;;;;;5091242;28;19908;-67
2022/11/26 12:09:50;;;;;;;;;;;;;;;;;;5111739;27;19926;-66
2022/11/26 12:13:28;;;;;;;;;;;;;;;;;;5096110;27;2205358;-67
2022/11/26 12:15:55;;;;;;;;;;;;;;;;;;5173660;27;19911;-66
2022/11/26 12:18:21;;;;;;;;;;;;;;;;;;5173170;27;19903;-66
2022/11/26 12:20:47;;;;;;;;;;;;;;;;;;5173687;27;19911;-67
2022/11/26 12:24:25;;;;;;;;;;;;;;;;;;5090987;27;19923;-67
2022/11/26 12:26:51;;;;;;;;;;;;;;;;;;5091327;28;20003;-66
2022/11/26 12:29:17;;;;;;;;;;;;;;;;;;5091502;28;20302;-67
2022/11/26 12:31:43;;;;;;;;;;;;;;;;;;5091353;28;19909;-68
2022/11/26 12:35:46;;;;;;;;;;;;;;;;;;5173841;27;19915;-67
2022/11/26 12:39:46;;;;;;;;;;;;;;;;;;5111502;27;20379;-67
2022/11/26 12:43:16;;;;;;;;;;;;;;;;;;5111957;27;20392;-67
2022/11/26 12:45:42;;;;;;;;;;;;;;;;;;5109994;28;20339;-68
2022/11/26 12:48:08;;;;;;;;;;;;;;;;;;5111961;28;19908;-66
2022/11/26 12:52:18;;;;;;;;;;;;;;;;;;5092178;27;19916;-66
2022/11/26 12:56:55;;;;;;;;;;;;;;;;;;5091684;27;20399;-67
2022/11/26 13:00:54;;;;;;;;;;;;;;;;;;5091198;27;20303;-66
2022/11/26 13:04:51;;;;;;;;;;;;;;;;;;5092187;27;19923;-67
2022/11/26 13:07:17;;;;;;;;;;;;;;;;;;5091163;28;19999;-67
2022/11/26 13:11:25;;;;;;;;;;;;;;;;;;5091797;27;20269;-68
2022/11/26 13:16:18;;;;;;;;;;;;;;;;;;5092261;27;19916;-65
2022/11/26 13:18:44;;;;;;;;;;;;;;;;;;5091341;28;20006;-66
2022/11/26 13:21:10;;;;;;;;;;;;;;;;;;5090946;28;19908;-66
2022/11/26 13:23:37;;;;;;;;;;;;;;;;;;5091560;28;20383;-67
2022/11/26 13:26:43;;;;;;;;;;;;;;;;;;5153200;27;20038;-66
2022/11/26 13:29:09;;;;;;;;;;;;;;;;;;5152443;27;19954;-66
2022/11/26 13:31:35;;;;;;;;;;;;;;;;;;5134216;27;20420;-66
2022/11/26 13:34:01;;;;;;;;;;;;;;;;;;5134242;27;19912;-66
2022/11/26 13:36:27;;;;;;;;;;;;;;;;;;5152431;27;19912;-66
2022/11/26 13:38:52;;;;;;;;;;;;;;;;;;5152634;27;20378;-66
2022/11/26 13:42:43;;;;;;;;;;;;;;;;;;5091100;27;19916;-66
2022/11/26 13:45:09;;;;;;;;;;;;;;;;;;5091567;28;20321;-66
2022/11/26 13:52:24;;;;;;;;;;;;;;;;;;5092124;27;19918;-66
2022/11/26 13:54:50;;;;;;;;;;;;;;;;;;5091633;28;20010;-66
2022/11/26 13:59:35;;;;;;;;;;;;;;;;;;5112216;27;19916;-66
2022/11/26 14:02:01;;;;;;;;;;;;;;;;;;5110398;28;19939;-65
2022/11/26 14:04:27;;;;;;;;;;;;;;;;;;5111352;28;19912;-66
2022/11/26 14:06:53;;;;;;;;;;;;;;;;;;5111792;28;19908;-65
2022/11/26 14:10:51;;;;;;;;;;;;;;;;;;5091102;27;20377;-67
2022/11/26 14:13:17;;;;;;;;;;;;;;;;;;5091307;28;20384;-67
2022/11/26 14:15:43;;;;;;;;;;;;;;;;;;5091350;28;19908;-67
2022/11/26 14:18:09;;;;;;;;;;;;;;;;;;5090866;28;19940;-67
2022/11/26 14:21:45;;;;;;;;;;;;;;;;;;5174712;27;20263;-66
2022/11/26 14:29:08;;;;;;;;;;;;;;;;;;5153424;27;20030;-65
2022/11/26 14:32:54;;;;;;;;;;;;;;;;;;5111399;27;19916;-66
2022/11/26 14:38:02;;;;;;;;;;;;;;;;;;5173521;27;20331;-66
2022/11/26 14:40:28;;;;;;;;;;;;;;;;;;5155098;27;19961;-65
2022/11/26 14:42:54;;;;;;;;;;;;;;;;;;5155054;27;19914;-65
2022/11/26 14:45:20;;;;;;;;;;;;;;;;;;5154659;27;19911;-67
2022/11/26 14:47:46;;;;;;;;;;;;;;;;;;5173774;27;19932;-67
2022/11/26 14:50:12;;;;;;;;;;;;;;;;;;5173601;27;20260;-65
2022/11/26 14:52:38;;;;;;;;;;;;;;;;;;5173245;27;19907;-67
2022/11/26 14:55:04;;;;;;;;;;;;;;;;;;5173459;27;19914;-67
2022/11/26 14:57:30;;;;;;;;;;;;;;;;;;5173438;27;20108;-67
2022/11/26 14:59:56;;;;;;;;;;;;;;;;;;5154406;27;19914;-67
2022/11/26 15:02:22;;;;;;;;;;;;;;;;;;5173286;27;19914;-67
2022/11/26 15:04:48;;;;;;;;;;;;;;;;;;5173317;27;19911;-67
2022/11/26 15:07:13;;;;;;;;;;;;;;;;;;5172917;27;19960;-67
2022/11/26 15:09:39;;;;;;;;;;;;;;;;;;5173218;27;19907;-67
2022/11/26 15:12:05;;;;;;;;;;;;;;;;;;5154503;27;19907;-68
2022/11/26 15:14:31;;;;;;;;;;;;;;;;;;5172738;27;19907;-68
2022/11/26 15:16:57;;;;;;;;;;;;;;;;;;5173047;27;19915;-68
2022/11/26 15:19:23;;;;;;;;;;;;;;;;;;5172962;27;19915;-68
2022/11/26 15:21:50;;;;;;;;;;;;;;;;;;5172770;27;19907;-67
2022/11/26 15:24:16;;;;;;;;;;;;;;;;;;5172889;27;19914;-67
2022/11/26 15:26:42;;;;;;;;;;;;;;;;;;5172885;27;19907;-67
2022/11/26 15:29:08;;;;;;;;;;;;;;;;;;5172483;27;20380;-67
2022/11/26 15:31:35;;;;;;;;;;;;;;;;;;5172777;27;20283;-67
2022/11/26 15:34:01;;;;;;;;;;;;;;;;;;5172634;27;19911;-68
2022/11/26 15:36:27;;;;;;;;;;;;;;;;;;5172022;27;19919;-67
2022/11/26 15:38:53;;;;;;;;;;;;;;;;;;5172622;27;20326;-67
2022/11/26 15:41:19;;;;;;;;;;;;;;;;;;5172148;27;19907;-67
2022/11/26 15:43:45;;;;;;;;;;;;;;;;;;5172510;27;19907;-67
2022/11/26 15:46:11;;;;;;;;;;;;;;;;;;5172412;27;19955;-67
2022/11/26 15:48:36;;;;;;;;;;;;;;;;;;5162354;27;20328;-67
2022/11/26 15:51:02;;;;;;;;;;;;;;;;;;5139889;27;19954;-67
2022/11/26 15:53:28;;;;;;;;;;;;;;;;;;5158415;27;19994;-68
2022/11/26 15:55:54;;;;;;;;;;;;;;;;;;5157952;27;19964;-67
2022/11/26 15:58:20;;;;;;;;;;;;;;;;;;5139684;27;19915;-67
2022/11/26 16:00:46;;;;;;;;;;;;;;;;;;5139678;27;20367;-67
2022/11/26 16:03:12;;;;;;;;;;;;;;;;;;5158081;27;20264;-67
2022/11/26 16:05:38;;;;;;;;;;;;;;;;;;5158171;27;20278;-66
2022/11/26 16:08:04;;;;;;;;;;;;;;;;;;5139638;27;19968;-67
2022/11/26 16:10:34;;;;;;;;;;;;;;;;;;5157725;27;20382;-66
2022/11/26 16:12:59;;;;;;;;;;;;;;;;;;5158252;27;19935;-67
2022/11/26 16:15:25;;;;;;;;;;;;;;;;;;5158107;27;19914;-68
2022/11/26 16:17:51;;;;;;;;;;;;;;;;;;5157578;27;19915;-66
2022/11/26 16:20:17;;;;;;;;;;;;;;;;;;5158341;27;19907;-67
2022/11/26 16:22:43;;;;;;;;;;;;;;;;;;5157915;27;19914;-67
2022/11/26 16:25:09;;;;;;;;;;;;;;;;;;5157528;27;20354;-67
2022/11/26 16:27:35;;;;;;;;;;;;;;;;;;5157920;27;19919;-66
2022/11/26 16:30:01;;;;;;;;;;;;;;;;;;5139171;27;19907;-69
2022/11/26 16:32:28;;;;;;;;;;;;;;;;;;5157423;27;19929;-67
2022/11/26 16:34:54;;;;;;;;;;;;;;;;;;5157717;27;20274;-67
2022/11/26 16:37:20;;;;;;;;;;;;;;;;;;5157385;27;19958;-68
2022/11/26 16:39:46;;;;;;;;;;;;;;;;;;5157151;27;19914;-69
2022/11/26 16:42:12;;;;;;;;;;;;;;;;;;5157484;27;19908;-69
2022/11/26 16:44:37;;;;;;;;;;;;;;;;;;5157641;27;20374;-68
2022/11/26 16:47:03;;;;;;;;;;;;;;;;;;5138820;27;20269;-68
2022/11/26 16:49:29;;;;;;;;;;;;;;;;;;5138555;27;19907;-68
2022/11/26 16:51:55;;;;;;;;;;;;;;;;;;5138363;27;20002;-68
2022/11/26 16:54:21;;;;;;;;;;;;;;;;;;5157213;27;19929;-67
2022/11/26 16:56:47;;;;;;;;;;;;;;;;;;5138581;27;19919;-68
2022/11/26 16:59:13;;;;;;;;;;;;;;;;;;5156300;27;19907;-68
2022/11/26 17:01:39;;;;;;;;;;;;;;;;;;5156902;27;19907;-68
2022/11/26 17:04:05;;;;;;;;;;;;;;;;;;5157329;27;19952;-68
2022/11/26 17:06:32;;;;;;;;;;;;;;;;;;5156596;27;19907;-68
2022/11/26 17:08:58;;;;;;;;;;;;;;;;;;5157212;27;20366;-67
2022/11/26 17:11:24;;;;;;;;;;;;;;;;;;5157068;27;19972;-67
2022/11/26 17:13:50;;;;;;;;;;;;;;;;;;5156523;27;20378;-68
2022/11/26 17:16:16;;;;;;;;;;;;;;;;;;5156810;27;19980;-67
2022/11/26 17:18:42;;;;;;;;;;;;;;;;;;5157056;27;19914;-68
2022/11/26 17:21:08;;;;;;;;;;;;;;;;;;5156389;27;19911;-68
2022/11/26 17:23:34;;;;;;;;;;;;;;;;;;5157021;27;19995;-68
2022/11/26 17:26:00;;;;;;;;;;;;;;;;;;5156843;27;19918;-68
2022/11/26 17:28:26;;;;;;;;;;;;;;;;;;5156229;27;20002;-68
2022/11/26 17:30:52;;;;;;;;;;;;;;;;;;5138003;27;19950;-68
2022/11/26 17:33:18;;;;;;;;;;;;;;;;;;5156542;27;19907;-67
2022/11/26 17:35:44;;;;;;;;;;;;;;;;;;5155782;27;20374;-68
2022/11/26 17:38:10;;;;;;;;;;;;;;;;;;5157033;27;19907;-68